createdAt,value
2023-07-11T00:01:28.318Z,84.50
2023-07-11T00:03:56.990Z,84.82
2023-07-11T00:06:25.436Z,84.82
2023-07-11T00:08:55.173Z,85.00
2023-07-11T00:11:23.650Z,85.82
2023-07-11T00:13:52.203Z,85.95
2023-07-11T00:16:21.865Z,86.34
2023-07-11T00:18:50.489Z,86.08
2023-07-11T00:21:18.896Z,85.73
2023-07-11T00:23:47.563Z,86.04
2023-07-11T00:26:18.252Z,85.97
2023-07-11T00:28:46.540Z,86.80
2023-07-11T00:31:14.930Z,86.77
2023-07-11T00:33:43.482Z,87.04
2023-07-11T00:36:11.792Z,87.58
2023-07-11T00:38:40.151Z,87.50
2023-07-11T00:41:09.907Z,87.27
2023-07-11T00:43:39.724Z,88.09
2023-07-11T00:46:14.109Z,88.16
2023-07-11T00:48:46.568Z,88.20
2023-07-11T00:51:19.504Z,88.92
2023-07-11T00:53:49.497Z,89.30
2023-07-11T00:56:22.537Z,88.84
2023-07-11T00:58:54.197Z,88.92
2023-07-11T01:01:23.024Z,89.34
2023-07-11T01:03:54.514Z,89.51
2023-07-11T01:06:29.129Z,89.30
2023-07-11T01:08:59.973Z,89.90
2023-07-11T01:11:53.395Z,89.72
2023-07-11T01:14:24.182Z,90.28
2023-07-11T01:16:53.407Z,90.33
2023-07-11T01:19:23.783Z,90.12
2023-07-11T01:21:54.193Z,90.57
2023-07-11T01:24:22.650Z,90.43
2023-07-11T01:26:50.937Z,90.23
2023-07-11T01:29:20.542Z,90.77
2023-07-11T01:31:48.994Z,90.46
2023-07-11T01:34:17.358Z,91.50
2023-07-11T01:36:45.676Z,91.19
2023-07-11T01:39:15.530Z,91.30
2023-07-11T01:41:43.853Z,92.01
2023-07-11T01:44:13.570Z,92.05
2023-07-11T01:46:42.166Z,91.68
2023-07-11T01:49:10.621Z,92.47
2023-07-11T01:51:38.964Z,92.49
2023-07-11T01:54:07.421Z,92.61
2023-07-11T01:56:39.140Z,92.96
2023-07-11T01:59:07.687Z,93.24
2023-07-11T02:01:36.506Z,93.04
2023-07-11T02:04:05.012Z,93.15
2023-07-11T02:06:33.410Z,93.20
2023-07-11T02:09:03.598Z,93.63
2023-07-11T02:11:32.719Z,93.68
2023-07-11T02:14:02.520Z,93.84
2023-07-11T02:16:31.041Z,93.69
2023-07-11T02:18:59.618Z,93.81
2023-07-11T02:21:48.844Z,93.83
2023-07-11T02:24:19.302Z,94.05
2023-07-11T02:26:48.183Z,93.92
2023-07-11T02:29:18.281Z,93.90
2023-07-11T02:31:49.554Z,93.80
2023-07-11T02:34:18.038Z,93.68
2023-07-11T02:36:46.368Z,93.88
2023-07-11T02:39:14.736Z,94.18
2023-07-11T02:41:43.169Z,94.35
2023-07-11T02:44:12.249Z,94.88
2023-07-11T02:46:41.999Z,95.10
2023-07-11T02:49:11.903Z,94.86
2023-07-11T02:51:40.771Z,94.98
2023-07-11T02:54:09.369Z,94.89
2023-07-11T02:56:39.094Z,94.75
2023-07-11T02:59:07.462Z,94.75
2023-07-11T03:01:36.899Z,94.56
2023-07-11T03:04:06.955Z,94.50
2023-07-11T03:06:35.332Z,94.63
2023-07-11T03:09:03.748Z,94.74
2023-07-11T03:11:32.136Z,94.53
2023-07-11T03:14:00.445Z,94.57
2023-07-11T03:16:28.784Z,94.71
2023-07-11T03:18:57.132Z,94.34
2023-07-11T03:21:26.735Z,94.65
2023-07-11T03:23:55.050Z,94.35
2023-07-11T03:26:25.186Z,94.35
2023-07-11T03:28:53.532Z,94.38
2023-07-11T03:31:22.846Z,94.51
2023-07-11T03:33:51.395Z,94.27
2023-07-11T03:36:21.052Z,94.71
2023-07-11T03:38:50.826Z,94.90
2023-07-11T03:41:19.175Z,94.73
2023-07-11T03:43:47.591Z,94.11
2023-07-11T03:46:15.964Z,93.81
2023-07-11T03:48:44.279Z,93.00
2023-07-11T03:51:12.629Z,92.90
2023-07-11T03:53:40.929Z,92.99
2023-07-11T03:56:11.053Z,93.07
2023-07-11T03:58:39.551Z,93.10
2023-07-11T04:01:07.911Z,93.20
2023-07-11T04:03:36.348Z,92.85
2023-07-11T04:06:05.256Z,92.45
2023-07-11T04:08:33.766Z,92.44
2023-07-11T04:11:02.414Z,92.23
2023-07-11T04:13:32.225Z,91.97
2023-07-11T04:16:00.822Z,92.13
2023-07-11T04:18:29.208Z,91.71
2023-07-11T04:20:57.451Z,91.49
2023-07-11T04:23:25.938Z,91.23
2023-07-11T04:25:55.612Z,90.61
2023-07-11T04:28:24.012Z,89.63
2023-07-11T04:30:53.804Z,89.02
2023-07-11T04:33:22.215Z,88.90
2023-07-11T04:35:50.713Z,89.11
2023-07-11T04:38:19.058Z,88.78
2023-07-11T04:40:47.698Z,89.22
2023-07-11T04:43:16.150Z,88.07
2023-07-11T04:45:44.616Z,87.73
2023-07-11T04:48:14.432Z,87.48
2023-07-11T04:50:42.807Z,87.47
2023-07-11T04:53:11.106Z,86.94
2023-07-11T04:55:40.093Z,86.88
2023-07-11T04:58:08.462Z,86.53
2023-07-11T05:00:37.181Z,85.63
2023-07-11T05:03:05.746Z,85.12
2023-07-11T05:05:37.347Z,84.48
2023-07-11T05:08:06.094Z,84.46
2023-07-11T05:10:34.436Z,84.92
2023-07-11T05:13:02.885Z,85.22
2023-07-11T05:15:31.270Z,84.42
2023-07-11T05:17:59.708Z,83.43
2023-07-11T05:20:28.193Z,82.69
2023-07-11T05:22:57.885Z,82.13
2023-07-11T05:25:26.331Z,81.84
2023-07-11T05:27:54.664Z,81.00
2023-07-11T05:30:22.933Z,78.92
2023-07-11T05:32:51.823Z,75.97
2023-07-11T05:35:20.188Z,74.67
2023-07-11T05:37:48.511Z,73.62
2023-07-11T05:40:22.986Z,71.24
2023-07-11T05:42:53.345Z,68.72
2023-07-11T05:45:21.645Z,66.53
2023-07-11T05:47:49.961Z,65.12
2023-07-11T05:50:18.417Z,64.72
2023-07-11T05:52:46.908Z,64.67
2023-07-11T05:55:15.503Z,65.46
2023-07-11T05:57:45.285Z,66.98
2023-07-11T06:00:14.877Z,67.06
2023-07-11T06:02:43.244Z,66.31
2023-07-11T06:05:11.754Z,66.43
2023-07-11T06:07:40.462Z,67.20
2023-07-11T06:10:09.707Z,67.06
2023-07-11T06:12:38.302Z,68.30
2023-07-11T06:15:09.156Z,67.33
2023-07-11T06:17:37.606Z,65.74
2023-07-11T06:20:10.361Z,65.00
2023-07-11T06:22:38.945Z,66.17
2023-07-11T06:25:08.531Z,65.55
2023-07-11T06:27:36.963Z,65.67
2023-07-11T06:30:07.841Z,65.14
2023-07-11T06:32:36.379Z,64.66
2023-07-11T06:35:05.364Z,64.92
2023-07-11T06:37:33.769Z,65.47
2023-07-11T06:40:02.100Z,64.07
2023-07-11T06:42:32.123Z,62.94
2023-07-11T06:45:01.456Z,63.64
2023-07-11T06:47:35.673Z,62.51
2023-07-11T06:50:04.248Z,62.54
2023-07-11T06:52:33.098Z,62.27
2023-07-11T06:55:01.498Z,62.17
2023-07-11T06:57:32.552Z,61.80
2023-07-11T07:00:00.920Z,61.19
2023-07-11T07:02:29.397Z,63.02
2023-07-11T07:04:59.324Z,63.18
2023-07-11T07:07:28.030Z,63.80
2023-07-11T07:09:56.716Z,64.21
2023-07-11T07:12:26.459Z,64.79
2023-07-11T07:14:54.845Z,64.23
2023-07-11T07:17:23.355Z,64.40
2023-07-11T07:19:54.518Z,63.85
2023-07-11T07:22:24.891Z,64.28
2023-07-11T07:24:53.224Z,64.02
2023-07-11T07:27:28.490Z,63.54
2023-07-11T07:29:57.867Z,64.44
2023-07-11T07:32:26.260Z,63.50
2023-07-11T07:34:54.770Z,62.93
2023-07-11T07:37:24.835Z,61.58
2023-07-11T07:39:53.343Z,60.32
2023-07-11T07:42:21.985Z,60.99
2023-07-11T07:44:52.361Z,60.05
2023-07-11T07:47:21.240Z,59.99
2023-07-11T07:49:55.260Z,59.66
2023-07-11T07:52:26.455Z,58.35
2023-07-11T07:55:09.231Z,58.00
2023-07-11T07:57:38.481Z,56.46
2023-07-11T08:00:08.088Z,52.45
2023-07-11T08:02:37.110Z,53.15
2023-07-11T08:05:05.958Z,54.17
2023-07-11T08:07:36.208Z,52.44
2023-07-11T08:10:04.811Z,52.44
2023-07-11T08:12:33.392Z,51.99
2023-07-11T08:15:01.705Z,51.95
2023-07-11T08:17:33.972Z,53.36
2023-07-11T08:20:02.573Z,54.80
2023-07-11T08:22:32.784Z,53.68
2023-07-11T08:25:02.585Z,53.68
2023-07-11T08:27:32.002Z,51.27
2023-07-11T08:30:00.340Z,49.34
2023-07-11T08:32:29.577Z,49.30
2023-07-11T08:34:58.175Z,50.26
2023-07-11T08:37:29.777Z,50.48
2023-07-11T08:39:58.277Z,49.27
2023-07-11T08:42:34.939Z,47.88
2023-07-11T08:45:16.612Z,47.46
2023-07-11T08:47:53.218Z,48.52
2023-07-11T08:50:25.898Z,50.77
2023-07-11T08:53:05.776Z,49.94
2023-07-11T08:55:38.422Z,51.00
2023-07-11T08:58:15.675Z,51.95
2023-07-11T09:00:48.097Z,52.72
2023-07-11T09:03:24.203Z,51.99
2023-07-11T09:05:59.463Z,54.09
2023-07-11T09:08:28.612Z,54.10
2023-07-11T14:35:50.356Z,43.99
2023-07-11T14:38:20.194Z,44.61
2023-07-11T14:40:49.526Z,44.09
2023-07-11T14:43:20.397Z,44.02
2023-07-11T14:45:48.859Z,43.49
2023-07-11T14:48:18.986Z,43.29
2023-07-11T14:50:51.078Z,42.81
2023-07-11T14:53:32.772Z,43.28
2023-07-11T14:57:15.397Z,43.61
2023-07-11T14:58:57.626Z,43.02
2023-07-11T15:01:26.349Z,43.66
2023-07-11T15:09:56.654Z,41.88
2023-07-11T15:11:49.353Z,42.37
2023-07-11T15:16:52.728Z,42.95
2023-07-11T15:19:23.524Z,42.21
2023-07-11T15:21:58.249Z,42.80
2023-07-11T15:24:27.289Z,43.33
2023-07-11T15:26:55.735Z,43.67
2023-07-11T15:29:26.488Z,43.59
2023-07-11T15:31:54.927Z,43.86
2023-07-11T15:34:26.393Z,45.32
2023-07-11T15:36:57.789Z,45.41
2023-07-11T15:39:26.729Z,45.82
2023-07-11T15:41:57.340Z,45.30
2023-07-11T15:44:54.121Z,46.95
2023-07-11T15:47:24.552Z,46.58
2023-07-11T15:49:53.189Z,46.52
2023-07-11T15:52:23.241Z,47.05
2023-07-11T15:54:51.560Z,46.97
2023-07-11T15:57:23.220Z,47.21
2023-07-11T15:59:52.203Z,46.52
2023-07-11T16:02:23.053Z,47.36
2023-07-11T16:04:52.792Z,47.97
2023-07-11T16:07:24.141Z,48.28
2023-07-11T16:09:52.671Z,48.51
2023-07-11T16:12:21.714Z,49.36
2023-07-11T16:14:50.106Z,48.21
2023-07-11T16:17:21.280Z,48.02
2023-07-11T16:19:52.024Z,48.17
2023-07-11T16:22:24.699Z,48.41
2023-07-11T16:24:53.193Z,48.98
2023-07-11T16:27:21.613Z,48.22
2023-07-11T16:29:50.080Z,47.92
2023-07-11T16:32:18.624Z,47.28
2023-07-11T16:34:47.004Z,46.20
2023-07-11T16:37:19.705Z,46.25
2023-07-11T16:39:50.072Z,47.63
2023-07-11T16:42:21.983Z,48.37
2023-07-11T16:44:50.813Z,49.00
2023-07-11T16:47:20.367Z,50.20
2023-07-11T16:49:51.368Z,50.53
2023-07-11T16:52:19.859Z,50.66
2023-07-11T16:54:50.476Z,50.47
2023-07-11T16:57:22.041Z,49.60
2023-07-11T16:59:50.563Z,49.43
2023-07-11T17:02:24.540Z,48.91
2023-07-11T17:04:53.924Z,49.50
2023-07-11T17:07:28.127Z,49.35
2023-07-11T17:09:58.582Z,48.34
2023-07-11T17:12:27.685Z,47.64
2023-07-11T17:14:56.137Z,48.74
2023-07-11T17:17:27.235Z,48.22
2023-07-11T17:19:57.098Z,47.99
2023-07-11T17:22:25.629Z,47.10
2023-07-11T17:24:54.562Z,46.50
2023-07-11T17:27:29.358Z,46.13
2023-07-11T17:29:58.312Z,45.98
2023-07-11T17:32:29.567Z,46.10
2023-07-11T17:34:58.056Z,46.08
2023-07-11T17:37:29.053Z,46.62
2023-07-11T17:39:58.270Z,47.36
2023-07-11T17:42:29.487Z,47.07
2023-07-11T17:44:59.219Z,47.56
2023-07-11T17:50:01.709Z,48.55
2023-07-11T17:52:33.226Z,49.11
2023-07-11T17:55:01.787Z,49.56
2023-07-11T17:57:36.209Z,50.48
2023-07-11T18:00:05.323Z,51.29
2023-07-11T18:02:57.217Z,51.50
2023-07-11T18:05:28.644Z,51.37
2023-07-11T18:07:57.180Z,51.57
2023-07-11T18:10:29.107Z,52.28
2023-07-11T18:13:10.278Z,52.51
2023-07-11T18:15:43.303Z,53.88
2023-07-11T18:18:24.188Z,54.95
2023-07-11T18:20:53.170Z,55.58
2023-07-11T18:23:21.919Z,55.92
2023-07-11T18:25:52.825Z,56.90
2023-07-11T18:28:24.586Z,57.51
2023-07-11T18:30:53.747Z,58.13
2023-07-11T18:33:22.640Z,58.70
2023-07-11T18:35:51.484Z,59.36
2023-07-11T18:38:21.668Z,60.14
2023-07-11T18:40:51.388Z,60.41
2023-07-11T18:43:20.272Z,61.17
2023-07-11T18:45:51.020Z,61.61
2023-07-11T18:48:19.491Z,62.24
2023-07-11T18:50:47.841Z,62.72
2023-07-11T18:53:17.577Z,63.32
2023-07-11T18:55:48.323Z,63.72
2023-07-11T18:58:18.893Z,64.30
2023-07-11T19:00:50.264Z,64.68
2023-07-11T19:03:19.829Z,65.17
2023-07-11T19:05:49.066Z,65.86
2023-07-11T19:08:19.004Z,66.18
2023-07-11T19:10:48.487Z,66.99
2023-07-11T19:13:17.362Z,67.44
2023-07-11T19:15:47.842Z,68.14
2023-07-11T19:18:21.928Z,68.16
2023-07-11T19:20:51.498Z,68.29
2023-07-11T19:23:23.157Z,68.71
2023-07-11T19:25:53.051Z,68.82
2023-07-11T19:28:23.735Z,69.47
2023-07-11T19:30:54.458Z,69.71
2023-07-11T19:33:25.704Z,69.88
2023-07-11T19:35:56.202Z,69.77
2023-07-11T19:38:26.696Z,70.28
2023-07-11T19:40:56.322Z,70.67
2023-07-11T19:43:25.213Z,71.32
2023-07-11T19:45:56.659Z,71.32
2023-07-11T19:48:29.396Z,71.09
2023-07-11T19:51:01.649Z,71.29
2023-07-11T19:53:33.180Z,70.91
2023-07-11T19:56:14.156Z,71.54
2023-07-11T19:58:43.795Z,71.74
2023-07-11T20:01:17.313Z,71.90
2023-07-11T20:03:56.528Z,71.95
2023-07-11T20:06:26.240Z,72.24
2023-07-11T20:08:57.426Z,72.39
2023-07-11T20:11:26.380Z,72.46
2023-07-11T20:13:59.030Z,72.54
2023-07-11T20:16:32.447Z,73.29
2023-07-11T20:19:03.316Z,73.20
2023-07-11T20:21:32.090Z,73.09
2023-07-11T20:24:04.650Z,73.24
2023-07-11T20:26:33.764Z,73.20
2023-07-11T20:29:02.883Z,73.61
2023-07-11T20:31:31.453Z,73.73
2023-07-11T20:34:00.185Z,74.19
2023-07-11T20:36:32.370Z,74.24
2023-07-11T20:39:01.535Z,74.13
2023-07-11T20:41:30.466Z,74.47
2023-07-11T20:44:00.959Z,74.24
2023-07-11T20:46:30.661Z,74.36
2023-07-11T20:49:01.578Z,74.84
2023-07-11T20:51:32.285Z,75.17
2023-07-11T20:54:01.105Z,74.68
2023-07-11T20:56:30.642Z,74.83
2023-07-11T20:59:00.162Z,75.29
2023-07-11T21:01:29.293Z,75.30
2023-07-11T21:03:58.137Z,75.33
2023-07-11T21:06:33.095Z,75.42
2023-07-11T21:09:03.271Z,75.94
2023-07-11T21:11:31.711Z,75.79
2023-07-11T21:14:00.227Z,76.27
2023-07-11T21:16:33.896Z,76.04
2023-07-11T21:19:05.468Z,76.28
2023-07-11T21:21:37.392Z,77.23
2023-07-11T21:24:06.256Z,77.24
2023-07-11T21:26:35.837Z,77.33
2023-07-11T21:29:08.211Z,77.93
2023-07-11T21:31:37.626Z,78.49
2023-07-11T21:34:06.959Z,79.03
2023-07-11T21:36:36.945Z,78.90
2023-07-11T21:39:07.174Z,79.19
2023-07-11T21:41:37.012Z,79.66
2023-07-11T21:44:05.863Z,79.93
2023-07-11T21:46:36.358Z,79.54
2023-07-11T21:49:05.119Z,80.12
2023-07-11T21:51:34.141Z,79.90
2023-07-11T21:54:04.441Z,80.22
2023-07-11T21:56:33.254Z,81.07
2023-07-11T21:59:02.899Z,81.00
2023-07-11T22:01:31.554Z,81.21
2023-07-11T22:04:01.946Z,81.21
2023-07-11T22:06:32.736Z,81.67
2023-07-11T22:09:01.282Z,81.95
2023-07-11T22:11:31.198Z,82.22
2023-07-11T22:13:59.690Z,82.42
2023-07-11T22:16:30.590Z,82.41
2023-07-11T22:18:59.462Z,83.34
2023-07-11T22:21:28.356Z,83.46
2023-07-11T22:23:59.790Z,84.15
2023-07-11T22:26:32.234Z,84.22
2023-07-11T22:29:02.868Z,84.30
2023-07-11T22:31:31.987Z,84.90
2023-07-11T22:34:00.534Z,84.83
2023-07-11T22:36:29.193Z,84.60
2023-07-11T22:38:57.657Z,84.98
2023-07-11T22:41:25.993Z,85.06
2023-07-11T22:43:55.758Z,84.51
2023-07-11T22:46:24.572Z,84.66
2023-07-11T22:48:53.031Z,84.95
2023-07-11T22:51:21.616Z,85.86
2023-07-11T22:53:50.065Z,86.10
2023-07-11T22:56:20.864Z,85.49
2023-07-11T22:58:50.151Z,85.59
2023-07-11T23:01:21.791Z,86.05
2023-07-11T23:03:50.408Z,86.98
2023-07-11T23:06:22.360Z,87.45
2023-07-11T23:08:51.612Z,87.90
2023-07-11T23:11:20.990Z,87.73
2023-07-11T23:13:50.101Z,87.56
2023-07-11T23:16:28.565Z,87.76
2023-07-11T23:18:57.848Z,87.51
2023-07-11T23:21:26.305Z,87.38
2023-07-11T23:23:55.753Z,87.14
2023-07-11T23:26:25.116Z,87.23
2023-07-11T23:28:53.720Z,88.13
2023-07-11T23:31:23.505Z,87.98
2023-07-11T23:33:52.025Z,88.69
2023-07-11T23:36:22.528Z,88.87
2023-07-11T23:38:52.603Z,90.01
2023-07-11T23:41:21.786Z,91.07
2023-07-11T23:43:53.058Z,91.78
2023-07-11T23:46:27.053Z,92.33
2023-07-11T23:48:56.139Z,92.94
2023-07-11T23:51:26.587Z,93.87
2023-07-11T23:53:55.233Z,94.67
2023-07-11T23:56:25.793Z,95.19
2023-07-11T23:58:54.914Z,95.58
